sensor_id;sensor_type;location;lat;lon;timestamp;P1;durP1;ratioP1;P2;durP2;ratioP2
10469;SDS011;5282;47.052;15.458;2023-03-14T00:01:21;11.23;;;10.13;;
10469;SDS011;5282;47.052;15.458;2023-03-14T00:03:48;13.70;;;10.90;;
10469;SDS011;5282;47.052;15.458;2023-03-14T00:06:16;11.20;;;9.97;;
10469;SDS011;5282;47.052;15.458;2023-03-14T00:08:43;11.37;;;10.13;;
10469;SDS011;5282;47.052;15.458;2023-03-14T00:11:13;13.73;;;10.23;;
10469;SDS011;5282;47.052;15.458;2023-03-14T00:13:43;13.87;;;10.70;;
10469;SDS011;5282;47.052;15.458;2023-03-14T00:16:11;11.53;;;10.43;;
10469;SDS011;5282;47.052;15.458;2023-03-14T00:18:41;13.80;;;11.27;;
10469;SDS011;5282;47.052;15.458;2023-03-14T00:21:09;12.07;;;10.73;;
10469;SDS011;5282;47.052;15.458;2023-03-14T00:23:37;13.60;;;10.50;;
10469;SDS011;5282;47.052;15.458;2023-03-14T00:26:06;11.10;;;9.87;;
10469;SDS011;5282;47.052;15.458;2023-03-14T00:28:36;11.23;;;10.20;;
10469;SDS011;5282;47.052;15.458;2023-03-14T00:31:03;11.27;;;10.10;;
10469;SDS011;5282;47.052;15.458;2023-03-14T00:33:31;8.00;;;7.20;;
10469;SDS011;5282;47.052;15.458;2023-03-14T00:35:59;9.20;;;8.40;;
10469;SDS011;5282;47.052;15.458;2023-03-14T00:38:27;9.60;;;8.63;;
10469;SDS011;5282;47.052;15.458;2023-03-14T00:40:54;11.50;;;8.87;;
10469;SDS011;5282;47.052;15.458;2023-03-14T00:43:21;9.63;;;8.50;;
10469;SDS011;5282;47.052;15.458;2023-03-14T00:45:51;10.83;;;8.53;;
10469;SDS011;5282;47.052;15.458;2023-03-14T00:48:19;9.17;;;8.20;;
10469;SDS011;5282;47.052;15.458;2023-03-14T00:50:47;8.57;;;7.63;;
10469;SDS011;5282;47.052;15.458;2023-03-14T00:53:14;8.77;;;7.63;;
10469;SDS011;5282;47.052;15.458;2023-03-14T00:55:44;8.37;;;7.53;;
10469;SDS011;5282;47.052;15.458;2023-03-14T00:58:12;7.50;;;6.73;;
10469;SDS011;5282;47.052;15.458;2023-03-14T01:00:40;8.23;;;7.40;;
10469;SDS011;5282;47.052;15.458;2023-03-14T01:03:10;7.60;;;6.97;;
10469;SDS011;5282;47.052;15.458;2023-03-14T01:05:43;7.47;;;6.87;;
10469;SDS011;5282;47.052;15.458;2023-03-14T01:08:10;7.60;;;6.90;;
10469;SDS011;5282;47.052;15.458;2023-03-14T01:10:38;8.07;;;6.50;;
10469;SDS011;5282;47.052;15.458;2023-03-14T01:13:05;9.57;;;6.23;;
10469;SDS011;5282;47.052;15.458;2023-03-14T01:15:32;6.17;;;5.63;;
10469;SDS011;5282;47.052;15.458;2023-03-14T01:18:00;5.50;;;5.00;;
10469;SDS011;5282;47.052;15.458;2023-03-14T01:20:28;6.00;;;5.53;;
10469;SDS011;5282;47.052;15.458;2023-03-14T01:22:55;6.13;;;5.73;;
10469;SDS011;5282;47.052;15.458;2023-03-14T01:25:22;7.40;;;5.87;;
10469;SDS011;5282;47.052;15.458;2023-03-14T01:27:49;5.37;;;4.97;;
10469;SDS011;5282;47.052;15.458;2023-03-14T01:30:17;6.77;;;5.20;;
10469;SDS011;5282;47.052;15.458;2023-03-14T01:32:44;6.10;;;5.60;;
10469;SDS011;5282;47.052;15.458;2023-03-14T01:35:11;5.70;;;5.30;;
10469;SDS011;5282;47.052;15.458;2023-03-14T01:37:40;5.53;;;5.20;;
10469;SDS011;5282;47.052;15.458;2023-03-14T01:40:09;5.43;;;4.97;;
10469;SDS011;5282;47.052;15.458;2023-03-14T01:42:44;6.33;;;5.20;;
10469;SDS011;5282;47.052;15.458;2023-03-14T01:48:20;6.23;;;5.03;;
10469;SDS011;5282;47.052;15.458;2023-03-14T01:50:50;5.60;;;5.20;;
10469;SDS011;5282;47.052;15.458;2023-03-14T01:53:18;5.57;;;5.27;;
10469;SDS011;5282;47.052;15.458;2023-03-14T01:55:46;5.77;;;5.27;;
10469;SDS011;5282;47.052;15.458;2023-03-14T01:58:14;5.73;;;5.23;;
10469;SDS011;5282;47.052;15.458;2023-03-14T02:00:43;5.73;;;5.33;;
10469;SDS011;5282;47.052;15.458;2023-03-14T02:03:11;5.27;;;4.87;;
10469;SDS011;5282;47.052;15.458;2023-03-14T02:05:43;5.40;;;5.07;;
10469;SDS011;5282;47.052;15.458;2023-03-14T02:08:13;5.13;;;4.60;;
10469;SDS011;5282;47.052;15.458;2023-03-14T02:10:43;5.87;;;5.33;;
10469;SDS011;5282;47.052;15.458;2023-03-14T02:13:12;6.33;;;5.80;;
10469;SDS011;5282;47.052;15.458;2023-03-14T02:15:40;6.17;;;5.67;;
10469;SDS011;5282;47.052;15.458;2023-03-14T02:18:08;5.93;;;5.43;;
10469;SDS011;5282;47.052;15.458;2023-03-14T02:20:38;6.57;;;5.50;;
10469;SDS011;5282;47.052;15.458;2023-03-14T02:23:12;5.93;;;5.43;;
10469;SDS011;5282;47.052;15.458;2023-03-14T02:25:45;5.73;;;5.20;;
10469;SDS011;5282;47.052;15.458;2023-03-14T02:28:19;5.90;;;5.37;;
10469;SDS011;5282;47.052;15.458;2023-03-14T02:30:47;5.37;;;4.87;;
10469;SDS011;5282;47.052;15.458;2023-03-14T02:33:15;5.07;;;4.70;;
10469;SDS011;5282;47.052;15.458;2023-03-14T02:35:44;5.20;;;4.70;;
10469;SDS011;5282;47.052;15.458;2023-03-14T02:38:17;5.27;;;4.87;;
10469;SDS011;5282;47.052;15.458;2023-03-14T02:40:49;5.27;;;4.87;;
10469;SDS011;5282;47.052;15.458;2023-03-14T02:43:16;5.30;;;4.80;;
10469;SDS011;5282;47.052;15.458;2023-03-14T02:45:45;5.63;;;4.87;;
10469;SDS011;5282;47.052;15.458;2023-03-14T02:48:15;5.30;;;5.00;;
10469;SDS011;5282;47.052;15.458;2023-03-14T02:50:45;6.13;;;4.77;;
10469;SDS011;5282;47.052;15.458;2023-03-14T02:53:14;6.20;;;4.70;;
10469;SDS011;5282;47.052;15.458;2023-03-14T02:55:45;5.23;;;4.73;;
10469;SDS011;5282;47.052;15.458;2023-03-14T02:58:13;5.17;;;4.67;;
10469;SDS011;5282;47.052;15.458;2023-03-14T03:00:41;5.20;;;4.90;;
10469;SDS011;5282;47.052;15.458;2023-03-14T03:03:10;4.33;;;4.00;;
10469;SDS011;5282;47.052;15.458;2023-03-14T03:05:38;5.10;;;4.70;;
10469;SDS011;5282;47.052;15.458;2023-03-14T03:08:05;5.23;;;4.30;;
10469;SDS011;5282;47.052;15.458;2023-03-14T03:10:32;5.23;;;4.77;;
10469;SDS011;5282;47.052;15.458;2023-03-14T03:12:59;4.73;;;4.30;;
10469;SDS011;5282;47.052;15.458;2023-03-14T03:15:27;4.63;;;4.33;;
10469;SDS011;5282;47.052;15.458;2023-03-14T03:17:55;4.97;;;4.57;;
10469;SDS011;5282;47.052;15.458;2023-03-14T03:20:23;5.03;;;4.50;;
10469;SDS011;5282;47.052;15.458;2023-03-14T03:22:51;5.03;;;4.63;;
10469;SDS011;5282;47.052;15.458;2023-03-14T03:25:18;5.13;;;4.63;;
10469;SDS011;5282;47.052;15.458;2023-03-14T03:27:45;4.67;;;4.40;;
10469;SDS011;5282;47.052;15.458;2023-03-14T03:30:14;4.90;;;4.40;;
10469;SDS011;5282;47.052;15.458;2023-03-14T03:32:41;4.57;;;4.27;;
10469;SDS011;5282;47.052;15.458;2023-03-14T03:35:10;4.40;;;4.07;;
10469;SDS011;5282;47.052;15.458;2023-03-14T03:37:39;4.40;;;4.10;;
10469;SDS011;5282;47.052;15.458;2023-03-14T03:40:07;4.50;;;4.10;;
10469;SDS011;5282;47.052;15.458;2023-03-14T03:42:35;4.37;;;4.07;;
10469;SDS011;5282;47.052;15.458;2023-03-14T03:45:03;4.40;;;4.00;;
10469;SDS011;5282;47.052;15.458;2023-03-14T03:47:30;4.03;;;3.83;;
10469;SDS011;5282;47.052;15.458;2023-03-14T03:49:58;4.27;;;3.83;;
10469;SDS011;5282;47.052;15.458;2023-03-14T03:52:25;4.23;;;3.80;;
10469;SDS011;5282;47.052;15.458;2023-03-14T03:54:53;4.30;;;4.00;;
10469;SDS011;5282;47.052;15.458;2023-03-14T03:57:20;3.50;;;3.30;;
10469;SDS011;5282;47.052;15.458;2023-03-14T03:59:47;7.07;;;3.70;;
10469;SDS011;5282;47.052;15.458;2023-03-14T04:02:13;4.73;;;3.90;;
10469;SDS011;5282;47.052;15.458;2023-03-14T04:04:40;3.93;;;3.73;;
10469;SDS011;5282;47.052;15.458;2023-03-14T04:07:07;3.87;;;3.57;;
10469;SDS011;5282;47.052;15.458;2023-03-14T04:09:36;4.73;;;4.20;;
10469;SDS011;5282;47.052;15.458;2023-03-14T04:12:05;3.93;;;3.63;;
10469;SDS011;5282;47.052;15.458;2023-03-14T04:14:32;3.70;;;3.47;;
10469;SDS011;5282;47.052;15.458;2023-03-14T04:16:59;8.57;;;3.60;;
10469;SDS011;5282;47.052;15.458;2023-03-14T04:19:26;3.97;;;3.57;;
10469;SDS011;5282;47.052;15.458;2023-03-14T04:21:53;6.97;;;3.67;;
10469;SDS011;5282;47.052;15.458;2023-03-14T04:24:20;4.43;;;4.07;;
10469;SDS011;5282;47.052;15.458;2023-03-14T04:26:47;3.70;;;3.50;;
10469;SDS011;5282;47.052;15.458;2023-03-14T04:29:16;3.40;;;3.20;;
10469;SDS011;5282;47.052;15.458;2023-03-14T04:31:44;3.73;;;3.43;;
10469;SDS011;5282;47.052;15.458;2023-03-14T04:34:10;3.87;;;3.50;;
10469;SDS011;5282;47.052;15.458;2023-03-14T04:36:37;4.07;;;3.70;;
10469;SDS011;5282;47.052;15.458;2023-03-14T04:39:04;3.80;;;3.43;;
10469;SDS011;5282;47.052;15.458;2023-03-14T04:41:31;3.50;;;3.30;;
10469;SDS011;5282;47.052;15.458;2023-03-14T04:43:58;3.40;;;3.20;;
10469;SDS011;5282;47.052;15.458;2023-03-14T04:46:27;4.37;;;3.50;;
10469;SDS011;5282;47.052;15.458;2023-03-14T04:48:54;3.83;;;3.53;;
10469;SDS011;5282;47.052;15.458;2023-03-14T04:51:22;3.50;;;3.20;;
10469;SDS011;5282;47.052;15.458;2023-03-14T04:53:52;3.33;;;2.87;;
10469;SDS011;5282;47.052;15.458;2023-03-14T04:56:20;3.60;;;2.87;;
10469;SDS011;5282;47.052;15.458;2023-03-14T04:58:47;3.23;;;3.03;;
10469;SDS011;5282;47.052;15.458;2023-03-14T05:01:14;3.93;;;3.43;;
10469;SDS011;5282;47.052;15.458;2023-03-14T05:03:43;3.73;;;2.90;;
10469;SDS011;5282;47.052;15.458;2023-03-14T05:06:10;3.87;;;3.57;;
10469;SDS011;5282;47.052;15.458;2023-03-14T05:08:37;3.60;;;3.30;;
10469;SDS011;5282;47.052;15.458;2023-03-14T05:11:04;4.87;;;3.13;;
10469;SDS011;5282;47.052;15.458;2023-03-14T05:13:31;3.53;;;3.23;;
10469;SDS011;5282;47.052;15.458;2023-03-14T05:16:05;3.10;;;2.90;;
10469;SDS011;5282;47.052;15.458;2023-03-14T05:18:33;4.37;;;3.03;;
10469;SDS011;5282;47.052;15.458;2023-03-14T05:21:03;3.87;;;2.97;;
10469;SDS011;5282;47.052;15.458;2023-03-14T05:23:30;3.40;;;3.10;;
10469;SDS011;5282;47.052;15.458;2023-03-14T05:25:57;3.37;;;3.07;;
10469;SDS011;5282;47.052;15.458;2023-03-14T05:28:24;4.13;;;2.63;;
10469;SDS011;5282;47.052;15.458;2023-03-14T05:30:51;2.87;;;2.77;;
10469;SDS011;5282;47.052;15.458;2023-03-14T05:33:18;4.13;;;3.40;;
10469;SDS011;5282;47.052;15.458;2023-03-14T05:35:48;4.43;;;3.60;;
10469;SDS011;5282;47.052;15.458;2023-03-14T05:38:16;6.40;;;2.90;;
10469;SDS011;5282;47.052;15.458;2023-03-14T05:40:44;5.57;;;3.53;;
10469;SDS011;5282;47.052;15.458;2023-03-14T05:43:12;4.93;;;3.87;;
10469;SDS011;5282;47.052;15.458;2023-03-14T05:45:40;4.40;;;3.23;;
10469;SDS011;5282;47.052;15.458;2023-03-14T05:48:08;3.83;;;3.63;;
10469;SDS011;5282;47.052;15.458;2023-03-14T05:50:35;3.97;;;3.67;;
10469;SDS011;5282;47.052;15.458;2023-03-14T05:53:03;3.50;;;3.23;;
10469;SDS011;5282;47.052;15.458;2023-03-14T05:55:31;3.63;;;3.33;;
10469;SDS011;5282;47.052;15.458;2023-03-14T05:57:58;3.37;;;2.90;;
10469;SDS011;5282;47.052;15.458;2023-03-14T06:00:25;4.90;;;3.40;;
10469;SDS011;5282;47.052;15.458;2023-03-14T06:02:52;9.80;;;3.83;;
10469;SDS011;5282;47.052;15.458;2023-03-14T06:05:19;6.67;;;4.03;;
10469;SDS011;5282;47.052;15.458;2023-03-14T06:07:47;3.87;;;3.40;;
10469;SDS011;5282;47.052;15.458;2023-03-14T06:10:14;7.13;;;3.87;;
10469;SDS011;5282;47.052;15.458;2023-03-14T06:12:42;7.70;;;3.70;;
10469;SDS011;5282;47.052;15.458;2023-03-14T06:15:10;4.47;;;4.17;;
10469;SDS011;5282;47.052;15.458;2023-03-14T06:17:37;3.80;;;3.33;;
10469;SDS011;5282;47.052;15.458;2023-03-14T06:20:04;5.97;;;4.20;;
10469;SDS011;5282;47.052;15.458;2023-03-14T06:22:32;4.90;;;4.40;;
10469;SDS011;5282;47.052;15.458;2023-03-14T06:24:59;7.33;;;4.33;;
10469;SDS011;5282;47.052;15.458;2023-03-14T06:27:25;9.87;;;4.50;;
10469;SDS011;5282;47.052;15.458;2023-03-14T06:29:54;10.33;;;4.10;;
10469;SDS011;5282;47.052;15.458;2023-03-14T06:32:21;4.97;;;3.80;;
10469;SDS011;5282;47.052;15.458;2023-03-14T06:34:48;9.33;;;4.33;;
10469;SDS011;5282;47.052;15.458;2023-03-14T06:37:15;6.97;;;3.50;;
10469;SDS011;5282;47.052;15.458;2023-03-14T06:39:42;4.60;;;3.53;;
10469;SDS011;5282;47.052;15.458;2023-03-14T06:42:09;6.83;;;3.60;;
10469;SDS011;5282;47.052;15.458;2023-03-14T06:44:36;7.03;;;5.53;;
10469;SDS011;5282;47.052;15.458;2023-03-14T06:47:04;7.87;;;5.80;;
10469;SDS011;5282;47.052;15.458;2023-03-14T06:49:31;6.33;;;5.60;;
10469;SDS011;5282;47.052;15.458;2023-03-14T06:51:58;9.20;;;5.80;;
10469;SDS011;5282;47.052;15.458;2023-03-14T06:54:25;6.60;;;5.00;;
10469;SDS011;5282;47.052;15.458;2023-03-14T06:56:52;5.27;;;4.10;;
10469;SDS011;5282;47.052;15.458;2023-03-14T06:59:19;7.00;;;4.33;;
10469;SDS011;5282;47.052;15.458;2023-03-14T07:01:46;8.53;;;4.67;;
10469;SDS011;5282;47.052;15.458;2023-03-14T07:04:17;5.30;;;4.67;;
10469;SDS011;5282;47.052;15.458;2023-03-14T07:06:44;5.83;;;4.03;;
10469;SDS011;5282;47.052;15.458;2023-03-14T07:09:12;5.53;;;3.87;;
10469;SDS011;5282;47.052;15.458;2023-03-14T07:11:39;4.63;;;3.47;;
10469;SDS011;5282;47.052;15.458;2023-03-14T07:14:06;3.93;;;3.73;;
10469;SDS011;5282;47.052;15.458;2023-03-14T07:16:33;6.13;;;3.90;;
10469;SDS011;5282;47.052;15.458;2023-03-14T07:19:00;4.50;;;4.10;;
10469;SDS011;5282;47.052;15.458;2023-03-14T07:21:29;4.13;;;3.77;;
10469;SDS011;5282;47.052;15.458;2023-03-14T07:23:57;3.73;;;3.47;;
10469;SDS011;5282;47.052;15.458;2023-03-14T07:26:24;5.30;;;3.30;;
10469;SDS011;5282;47.052;15.458;2023-03-14T07:28:51;3.70;;;3.40;;
10469;SDS011;5282;47.052;15.458;2023-03-14T07:31:18;3.90;;;3.37;;
10469;SDS011;5282;47.052;15.458;2023-03-14T07:33:45;4.00;;;3.50;;
10469;SDS011;5282;47.052;15.458;2023-03-14T07:36:12;5.03;;;3.27;;
10469;SDS011;5282;47.052;15.458;2023-03-14T07:38:41;4.67;;;3.80;;
10469;SDS011;5282;47.052;15.458;2023-03-14T07:41:10;6.53;;;3.43;;
10469;SDS011;5282;47.052;15.458;2023-03-14T07:43:37;6.47;;;3.70;;
10469;SDS011;5282;47.052;15.458;2023-03-14T07:46:04;3.80;;;3.60;;
10469;SDS011;5282;47.052;15.458;2023-03-14T07:48:32;5.80;;;3.90;;
10469;SDS011;5282;47.052;15.458;2023-03-14T07:50:59;8.50;;;3.87;;
10469;SDS011;5282;47.052;15.458;2023-03-14T07:53:26;3.80;;;3.20;;
10469;SDS011;5282;47.052;15.458;2023-03-14T07:55:54;4.13;;;2.97;;
10469;SDS011;5282;47.052;15.458;2023-03-14T07:58:21;3.17;;;2.87;;
10469;SDS011;5282;47.052;15.458;2023-03-14T08:00:48;21.67;;;4.43;;
10469;SDS011;5282;47.052;15.458;2023-03-14T08:03:16;13.43;;;3.03;;
10469;SDS011;5282;47.052;15.458;2023-03-14T08:05:46;4.17;;;2.33;;
10469;SDS011;5282;47.052;15.458;2023-03-14T08:08:14;2.80;;;1.97;;
10469;SDS011;5282;47.052;15.458;2023-03-14T08:10:41;5.33;;;2.43;;
10469;SDS011;5282;47.052;15.458;2023-03-14T08:13:09;7.97;;;2.47;;
10469;SDS011;5282;47.052;15.458;2023-03-14T08:15:36;7.33;;;2.37;;
10469;SDS011;5282;47.052;15.458;2023-03-14T08:18:04;7.77;;;2.07;;
10469;SDS011;5282;47.052;15.458;2023-03-14T08:20:32;1.97;;;1.80;;
10469;SDS011;5282;47.052;15.458;2023-03-14T08:23:00;2.93;;;1.67;;
10469;SDS011;5282;47.052;15.458;2023-03-14T08:25:27;6.70;;;2.43;;
10469;SDS011;5282;47.052;15.458;2023-03-14T08:27:55;2.43;;;2.00;;
10469;SDS011;5282;47.052;15.458;2023-03-14T08:30:23;4.33;;;1.90;;
10469;SDS011;5282;47.052;15.458;2023-03-14T08:32:50;8.03;;;2.20;;
10469;SDS011;5282;47.052;15.458;2023-03-14T08:35:18;6.73;;;1.90;;
10469;SDS011;5282;47.052;15.458;2023-03-14T08:37:45;5.23;;;2.00;;
10469;SDS011;5282;47.052;15.458;2023-03-14T08:40:13;12.67;;;2.93;;
10469;SDS011;5282;47.052;15.458;2023-03-14T08:42:42;3.30;;;1.73;;
10469;SDS011;5282;47.052;15.458;2023-03-14T08:45:10;2.60;;;2.07;;
10469;SDS011;5282;47.052;15.458;2023-03-14T08:47:40;4.93;;;2.27;;
10469;SDS011;5282;47.052;15.458;2023-03-14T08:50:07;4.53;;;2.10;;
10469;SDS011;5282;47.052;15.458;2023-03-14T08:52:35;3.93;;;2.10;;
10469;SDS011;5282;47.052;15.458;2023-03-14T08:55:06;1.63;;;1.53;;
10469;SDS011;5282;47.052;15.458;2023-03-14T08:57:34;5.23;;;1.90;;
10469;SDS011;5282;47.052;15.458;2023-03-14T09:00:02;2.40;;;1.40;;
10469;SDS011;5282;47.052;15.458;2023-03-14T09:02:35;8.87;;;1.73;;
10469;SDS011;5282;47.052;15.458;2023-03-14T09:05:04;5.03;;;1.80;;
10469;SDS011;5282;47.052;15.458;2023-03-14T09:07:32;8.37;;;1.87;;
10469;SDS011;5282;47.052;15.458;2023-03-14T09:09:59;8.67;;;2.30;;
10469;SDS011;5282;47.052;15.458;2023-03-14T09:12:26;13.80;;;2.47;;
10469;SDS011;5282;47.052;15.458;2023-03-14T09:14:53;2.93;;;1.80;;
10469;SDS011;5282;47.052;15.458;2023-03-14T09:17:20;38.90;;;4.40;;
10469;SDS011;5282;47.052;15.458;2023-03-14T09:19:47;36.17;;;3.47;;
10469;SDS011;5282;47.052;15.458;2023-03-14T09:22:15;17.17;;;3.50;;
10469;SDS011;5282;47.052;15.458;2023-03-14T09:24:42;10.30;;;1.93;;
10469;SDS011;5282;47.052;15.458;2023-03-14T09:27:09;3.20;;;1.90;;
10469;SDS011;5282;47.052;15.458;2023-03-14T09:29:36;4.67;;;1.80;;
10469;SDS011;5282;47.052;15.458;2023-03-14T09:32:03;8.13;;;2.03;;
10469;SDS011;5282;47.052;15.458;2023-03-14T09:34:30;3.70;;;2.10;;
10469;SDS011;5282;47.052;15.458;2023-03-14T09:36:58;4.30;;;1.90;;
10469;SDS011;5282;47.052;15.458;2023-03-14T09:39:26;23.30;;;4.10;;
10469;SDS011;5282;47.052;15.458;2023-03-14T09:41:53;6.07;;;2.50;;
10469;SDS011;5282;47.052;15.458;2023-03-14T09:44:24;12.87;;;3.13;;
10469;SDS011;5282;47.052;15.458;2023-03-14T09:46:54;1.47;;;1.33;;
10469;SDS011;5282;47.052;15.458;2023-03-14T09:49:24;1.93;;;1.40;;
10469;SDS011;5282;47.052;15.458;2023-03-14T09:51:54;1.77;;;1.47;;
10469;SDS011;5282;47.052;15.458;2023-03-14T09:54:29;2.53;;;1.30;;
10469;SDS011;5282;47.052;15.458;2023-03-14T09:56:58;3.30;;;1.30;;
10469;SDS011;5282;47.052;15.458;2023-03-14T09:59:25;1.90;;;1.27;;
10469;SDS011;5282;47.052;15.458;2023-03-14T10:01:55;3.83;;;1.50;;
10469;SDS011;5282;47.052;15.458;2023-03-14T10:04:24;3.20;;;1.57;;
10469;SDS011;5282;47.052;15.458;2023-03-14T10:06:52;2.27;;;1.23;;
10469;SDS011;5282;47.052;15.458;2023-03-14T10:09:20;1.77;;;1.23;;
10469;SDS011;5282;47.052;15.458;2023-03-14T10:11:53;4.33;;;1.27;;
10469;SDS011;5282;47.052;15.458;2023-03-14T10:14:29;4.17;;;1.27;;
10469;SDS011;5282;47.052;15.458;2023-03-14T10:17:04;2.70;;;1.40;;
10469;SDS011;5282;47.052;15.458;2023-03-14T10:19:33;1.77;;;1.20;;
10469;SDS011;5282;47.052;15.458;2023-03-14T10:22:01;2.47;;;1.33;;
10469;SDS011;5282;47.052;15.458;2023-03-14T10:24:30;2.20;;;1.20;;
10469;SDS011;5282;47.052;15.458;2023-03-14T10:27:00;5.47;;;1.77;;
10469;SDS011;5282;47.052;15.458;2023-03-14T10:29:30;2.90;;;1.27;;
10469;SDS011;5282;47.052;15.458;2023-03-14T10:31:59;2.27;;;1.40;;
10469;SDS011;5282;47.052;15.458;2023-03-14T10:34:28;3.27;;;1.60;;
10469;SDS011;5282;47.052;15.458;2023-03-14T10:36:58;2.83;;;2.00;;
10469;SDS011;5282;47.052;15.458;2023-03-14T10:39:32;2.50;;;1.87;;
10469;SDS011;5282;47.052;15.458;2023-03-14T10:42:12;1.83;;;1.53;;
10469;SDS011;5282;47.052;15.458;2023-03-14T10:44:43;2.00;;;1.40;;
10469;SDS011;5282;47.052;15.458;2023-03-14T10:47:15;2.53;;;1.50;;
10469;SDS011;5282;47.052;15.458;2023-03-14T10:49:46;1.20;;;1.10;;
10469;SDS011;5282;47.052;15.458;2023-03-14T10:52:15;1.50;;;1.00;;
10469;SDS011;5282;47.052;15.458;2023-03-14T10:54:48;2.47;;;1.37;;
10469;SDS011;5282;47.052;15.458;2023-03-14T10:57:22;1.30;;;1.00;;
10469;SDS011;5282;47.052;15.458;2023-03-14T10:59:50;2.73;;;1.03;;
10469;SDS011;5282;47.052;15.458;2023-03-14T11:02:26;0.50;;;0.50;;
10469;SDS011;5282;47.052;15.458;2023-03-14T11:05:10;1.17;;;0.53;;
10469;SDS011;5282;47.052;15.458;2023-03-14T11:07:45;2.17;;;0.30;;
10469;SDS011;5282;47.052;15.458;2023-03-14T11:10:14;0.40;;;0.40;;
10469;SDS011;5282;47.052;15.458;2023-03-14T11:12:52;1.07;;;0.37;;
10469;SDS011;5282;47.052;15.458;2023-03-14T11:15:32;2.00;;;0.40;;
10469;SDS011;5282;47.052;15.458;2023-03-14T11:18:12;1.27;;;0.50;;
10469;SDS011;5282;47.052;15.458;2023-03-14T11:20:51;1.10;;;0.60;;
10469;SDS011;5282;47.052;15.458;2023-03-14T11:23:22;2.63;;;0.90;;
10469;SDS011;5282;47.052;15.458;2023-03-14T11:25:56;1.80;;;1.10;;
10469;SDS011;5282;47.052;15.458;2023-03-14T11:28:32;0.97;;;0.73;;
10469;SDS011;5282;47.052;15.458;2023-03-14T11:31:04;2.13;;;0.90;;
10469;SDS011;5282;47.052;15.458;2023-03-14T11:33:45;1.53;;;0.60;;
10469;SDS011;5282;47.052;15.458;2023-03-14T11:36:17;0.50;;;0.50;;
10469;SDS011;5282;47.052;15.458;2023-03-14T11:38:48;1.30;;;0.47;;
10469;SDS011;5282;47.052;15.458;2023-03-14T11:41:17;1.63;;;0.40;;
10469;SDS011;5282;47.052;15.458;2023-03-14T11:43:51;1.27;;;0.40;;
10469;SDS011;5282;47.052;15.458;2023-03-14T11:46:21;0.50;;;0.30;;
10469;SDS011;5282;47.052;15.458;2023-03-14T11:48:55;1.13;;;0.40;;
10469;SDS011;5282;47.052;15.458;2023-03-14T11:51:29;1.33;;;0.50;;
10469;SDS011;5282;47.052;15.458;2023-03-14T11:54:00;0.63;;;0.33;;
10469;SDS011;5282;47.052;15.458;2023-03-14T11:56:33;0.43;;;0.30;;
10469;SDS011;5282;47.052;15.458;2023-03-14T11:59:07;2.83;;;0.50;;
10469;SDS011;5282;47.052;15.458;2023-03-14T12:01:49;0.60;;;0.40;;
10469;SDS011;5282;47.052;15.458;2023-03-14T12:04:22;1.03;;;0.40;;
10469;SDS011;5282;47.052;15.458;2023-03-14T12:07:03;1.03;;;0.50;;
10469;SDS011;5282;47.052;15.458;2023-03-14T12:09:38;0.40;;;0.40;;
10469;SDS011;5282;47.052;15.458;2023-03-14T12:12:06;0.30;;;0.30;;
10469;SDS011;5282;47.052;15.458;2023-03-14T12:14:38;0.57;;;0.57;;
10469;SDS011;5282;47.052;15.458;2023-03-14T12:17:18;0.63;;;0.50;;
10469;SDS011;5282;47.052;15.458;2023-03-14T12:19:47;1.30;;;0.60;;
10469;SDS011;5282;47.052;15.458;2023-03-14T12:22:26;3.50;;;0.60;;
10469;SDS011;5282;47.052;15.458;2023-03-14T12:24:57;0.77;;;0.37;;
10469;SDS011;5282;47.052;15.458;2023-03-14T12:30:37;2.93;;;0.80;;
10469;SDS011;5282;47.052;15.458;2023-03-14T12:36:03;0.63;;;0.50;;
10469;SDS011;5282;47.052;15.458;2023-03-14T12:42:04;2.77;;;0.70;;
10469;SDS011;5282;47.052;15.458;2023-03-14T12:44:42;1.70;;;0.70;;
10469;SDS011;5282;47.052;15.458;2023-03-14T12:50:28;1.17;;;0.57;;
10469;SDS011;5282;47.052;15.458;2023-03-14T12:53:14;1.10;;;1.00;;
10469;SDS011;5282;47.052;15.458;2023-03-14T12:55:58;1.10;;;0.70;;
10469;SDS011;5282;47.052;15.458;2023-03-14T12:58:34;1.10;;;0.80;;
10469;SDS011;5282;47.052;15.458;2023-03-14T13:01:05;2.00;;;1.00;;
10469;SDS011;5282;47.052;15.458;2023-03-14T13:03:43;5.43;;;0.97;;
10469;SDS011;5282;47.052;15.458;2023-03-14T13:06:12;1.97;;;1.23;;
10469;SDS011;5282;47.052;15.458;2023-03-14T13:08:39;1.63;;;0.90;;
10469;SDS011;5282;47.052;15.458;2023-03-14T13:11:09;1.00;;;1.00;;
10469;SDS011;5282;47.052;15.458;2023-03-14T13:13:41;4.20;;;1.33;;
10469;SDS011;5282;47.052;15.458;2023-03-14T13:16:12;2.20;;;0.83;;
10469;SDS011;5282;47.052;15.458;2023-03-14T13:18:44;1.37;;;0.90;;
10469;SDS011;5282;47.052;15.458;2023-03-14T13:21:14;1.27;;;0.80;;
10469;SDS011;5282;47.052;15.458;2023-03-14T13:23:55;2.70;;;0.90;;
10469;SDS011;5282;47.052;15.458;2023-03-14T13:26:25;1.63;;;0.80;;
10469;SDS011;5282;47.052;15.458;2023-03-14T13:29:00;2.03;;;0.80;;
10469;SDS011;5282;47.052;15.458;2023-03-14T13:31:35;0.97;;;0.87;;
10469;SDS011;5282;47.052;15.458;2023-03-14T13:34:04;5.43;;;0.83;;
10469;SDS011;5282;47.052;15.458;2023-03-14T13:36:36;3.60;;;1.20;;
10469;SDS011;5282;47.052;15.458;2023-03-14T13:39:06;1.70;;;0.70;;
10469;SDS011;5282;47.052;15.458;2023-03-14T13:41:38;2.77;;;1.00;;
10469;SDS011;5282;47.052;15.458;2023-03-14T13:44:05;0.97;;;0.70;;
10469;SDS011;5282;47.052;15.458;2023-03-14T13:46:35;2.47;;;0.77;;
10469;SDS011;5282;47.052;15.458;2023-03-14T13:49:06;2.37;;;0.70;;
10469;SDS011;5282;47.052;15.458;2023-03-14T13:51:38;2.47;;;0.87;;
10469;SDS011;5282;47.052;15.458;2023-03-14T13:54:13;0.70;;;0.70;;
10469;SDS011;5282;47.052;15.458;2023-03-14T13:56:41;1.03;;;0.80;;
10469;SDS011;5282;47.052;15.458;2023-03-14T13:59:20;0.67;;;0.67;;
10469;SDS011;5282;47.052;15.458;2023-03-14T14:01:48;0.70;;;0.70;;
10469;SDS011;5282;47.052;15.458;2023-03-14T14:04:18;2.07;;;0.80;;
10469;SDS011;5282;47.052;15.458;2023-03-14T14:06:49;2.83;;;1.00;;
10469;SDS011;5282;47.052;15.458;2023-03-14T14:09:22;4.33;;;1.03;;
10469;SDS011;5282;47.052;15.458;2023-03-14T14:11:52;1.33;;;0.80;;
10469;SDS011;5282;47.052;15.458;2023-03-14T14:14:23;3.90;;;0.67;;
10469;SDS011;5282;47.052;15.458;2023-03-14T14:16:54;0.73;;;0.67;;
10469;SDS011;5282;47.052;15.458;2023-03-14T14:19:25;1.33;;;0.70;;
10469;SDS011;5282;47.052;15.458;2023-03-14T14:21:54;0.83;;;0.60;;
10469;SDS011;5282;47.052;15.458;2023-03-14T14:24:24;0.70;;;0.70;;
10469;SDS011;5282;47.052;15.458;2023-03-14T14:26:58;3.27;;;1.53;;
10469;SDS011;5282;47.052;15.458;2023-03-14T14:29:27;0.70;;;0.70;;
10469;SDS011;5282;47.052;15.458;2023-03-14T14:32:03;1.03;;;0.60;;
10469;SDS011;5282;47.052;15.458;2023-03-14T14:34:40;0.60;;;0.60;;
10469;SDS011;5282;47.052;15.458;2023-03-14T14:37:17;0.67;;;0.67;;
10469;SDS011;5282;47.052;15.458;2023-03-14T14:39:46;0.70;;;0.70;;
10469;SDS011;5282;47.052;15.458;2023-03-14T14:42:14;0.70;;;0.70;;
10469;SDS011;5282;47.052;15.458;2023-03-14T14:44:43;0.60;;;0.60;;
10469;SDS011;5282;47.052;15.458;2023-03-14T14:47:12;0.50;;;0.50;;
10469;SDS011;5282;47.052;15.458;2023-03-14T14:49:42;0.57;;;0.57;;
10469;SDS011;5282;47.052;15.458;2023-03-14T14:52:10;1.07;;;0.60;;
10469;SDS011;5282;47.052;15.458;2023-03-14T14:54:42;1.37;;;0.80;;
10469;SDS011;5282;47.052;15.458;2023-03-14T14:57:17;1.10;;;0.60;;
10469;SDS011;5282;47.052;15.458;2023-03-14T14:59:47;3.47;;;1.00;;
10469;SDS011;5282;47.052;15.458;2023-03-14T15:02:27;3.03;;;0.93;;
10469;SDS011;5282;47.052;15.458;2023-03-14T15:04:58;1.40;;;0.80;;
10469;SDS011;5282;47.052;15.458;2023-03-14T15:07:25;2.47;;;1.10;;
10469;SDS011;5282;47.052;15.458;2023-03-14T15:09:52;3.43;;;1.30;;
10469;SDS011;5282;47.052;15.458;2023-03-14T15:12:19;2.67;;;1.00;;
10469;SDS011;5282;47.052;15.458;2023-03-14T15:14:46;1.20;;;1.07;;